Time;durP1;ratioP1;P1;durP2;ratioP2;P2;SDS_P1;SDS_P2;PMS_P1;PMS_P2;Temp;Humidity;BMP_temperature;BMP_pressure;BME280_temperature;BME280_humidity;BME280_pressure;Samples;Min_cycle;Max_cycle;Signal;HPM_P1;HPM_P2
2021/07/24 00:01:09;;;;;;;2.10;1.80;;;19.10;98.00;;;;;;5092619;28;20466;-69
2021/07/24 00:03:36;;;;;;;2.07;1.90;;;19.00;98.00;;;;;;5092074;28;20479;-70
2021/07/24 00:06:03;;;;;;;2.40;2.00;;;18.90;98.00;;;;;;5092432;28;20524;-71
2021/07/24 00:08:34;;;;;;;3.67;2.07;;;18.90;98.00;;;;;;5091994;28;20492;-70
2021/07/24 00:11:04;;;;;;;3.00;2.00;;;18.80;98.00;;;;;;5092493;28;20452;-70
2021/07/24 00:13:32;;;;;;;2.40;1.80;;;18.80;98.00;;;;;;5092053;28;20880;-71
2021/07/24 00:15:59;;;;;;;3.33;1.80;;;18.90;98.00;;;;;;5092358;28;20467;-71
2021/07/24 00:18:26;;;;;;;2.17;1.87;;;19.00;98.00;;;;;;5092073;28;20460;-71
2021/07/24 00:20:54;;;;;;;2.23;1.53;;;19.00;98.00;;;;;;5092371;28;20517;-70
2021/07/24 00:23:22;;;;;;;3.10;2.27;;;18.90;98.00;;;;;;5092249;28;20537;-69
2021/07/24 00:25:48;;;;;;;2.13;1.60;;;18.70;98.00;;;;;;5092147;28;20487;-71
2021/07/24 00:28:17;;;;;;;2.73;2.10;;;18.80;98.00;;;;;;5090894;28;20501;-70
2021/07/24 00:30:44;;;;;;;3.10;1.97;;;18.60;98.00;;;;;;5091865;28;20491;-70
2021/07/24 00:33:11;;;;;;;1.90;1.70;;;18.60;98.00;;;;;;5091792;28;20488;-71
2021/07/24 00:35:39;;;;;;;4.87;2.23;;;18.60;98.00;;;;;;5091966;28;21016;-69
2021/07/24 00:38:07;;;;;;;3.03;2.10;;;18.60;98.00;;;;;;5091721;28;20934;-69
2021/07/24 00:40:43;;;;;;;2.00;1.93;;;18.60;98.00;;;;;;5091745;28;20460;-69
2021/07/24 00:43:14;;;;;;;2.00;1.50;;;18.40;98.00;;;;;;5091625;28;20455;-71
2021/07/24 00:45:47;;;;;;;3.70;1.90;;;18.30;98.00;;;;;;5091758;28;20777;-70
2021/07/24 00:48:20;;;;;;;2.10;1.63;;;18.40;98.00;;;;;;5091704;28;20466;-69
2021/07/24 00:50:48;;;;;;;1.80;1.70;;;18.50;98.00;;;;;;5091706;28;20512;-70
2021/07/24 00:53:22;;;;;;;2.43;2.23;;;18.60;98.00;;;;;;5091689;28;20539;-69
2021/07/24 00:55:49;;;;;;;4.87;3.40;;;18.40;98.00;;;;;;5091278;28;20540;-70
2021/07/24 00:58:23;;;;;;;2.30;1.77;;;18.30;98.00;;;;;;5091238;28;20456;-71
2021/07/24 01:00:52;;;;;;;3.77;2.30;;;18.30;98.00;;;;;;5091262;28;20543;-71
2021/07/24 01:03:19;;;;;;;2.70;2.03;;;18.30;98.00;;;;;;5091613;28;20491;-70
2021/07/24 01:05:50;;;;;;;2.47;2.10;;;18.20;98.00;;;;;;5090320;28;21032;-70
2021/07/24 01:08:17;;;;;;;2.93;1.90;;;18.30;98.00;;;;;;5091604;28;20933;-70
2021/07/24 01:10:44;;;;;;;3.07;2.50;;;18.20;98.00;;;;;;5091480;28;20452;-71
2021/07/24 01:13:16;;;;;;;1.80;1.53;;;18.30;98.00;;;;;;5091537;28;20509;-70
2021/07/24 01:15:44;;;;;;;3.63;1.93;;;18.20;98.00;;;;;;5091602;28;20456;-71
2021/07/24 01:18:14;;;;;;;3.20;1.90;;;18.40;98.00;;;;;;5090985;28;20464;-69
2021/07/24 01:20:42;;;;;;;3.17;2.23;;;18.30;98.00;;;;;;5090253;28;20491;-70
2021/07/24 01:23:12;;;;;;;1.97;1.63;;;18.10;98.00;;;;;;5091496;28;20488;-71
2021/07/24 01:25:44;;;;;;;3.77;2.30;;;18.10;98.00;;;;;;5091392;28;20488;-69
2021/07/24 01:28:11;;;;;;;3.17;1.90;;;18.00;98.00;;;;;;5091386;28;20479;-71
2021/07/24 01:30:39;;;;;;;3.60;1.87;;;18.00;98.00;;;;;;5091553;28;20460;-70
2021/07/24 01:33:06;;;;;;;1.77;1.50;;;18.10;98.00;;;;;;5091110;28;20464;-70
2021/07/24 01:35:33;;;;;;;1.50;1.50;;;18.10;98.00;;;;;;5091667;28;20865;-70
2021/07/24 01:38:00;;;;;;;1.97;1.80;;;18.10;98.00;;;;;;5091334;28;21008;-70
2021/07/24 01:40:28;;;;;;;1.93;1.87;;;18.20;98.00;;;;;;5094371;28;21020;-69
2021/07/24 01:42:58;;;;;;;2.27;1.70;;;18.20;98.00;;;;;;5095168;28;20467;-69
2021/07/24 01:45:25;;;;;;;2.17;1.60;;;18.20;98.00;;;;;;5095221;28;20476;-69
2021/07/24 01:47:53;;;;;;;2.33;1.70;;;18.20;98.00;;;;;;5095208;28;20495;-69
2021/07/24 01:53:18;;;;;;;2.10;1.67;;;18.10;98.00;;;;;;5051592;28;20819;-69
2021/07/24 01:55:51;;;;;;;2.00;1.53;;;18.00;98.00;;;;;;5079741;28;21111;-69
2021/07/24 01:58:20;;;;;;;3.00;2.10;;;18.00;98.00;;;;;;5094526;28;20462;-69
2021/07/24 02:00:50;;;;;;;2.20;1.60;;;17.90;98.00;;;;;;5093498;28;20474;-70
2021/07/24 02:03:20;;;;;;;1.97;1.50;;;17.90;98.00;;;;;;5094742;28;20456;-69
2021/07/24 02:05:48;;;;;;;1.67;1.60;;;17.90;98.00;;;;;;5094331;28;20480;-69
2021/07/24 02:08:20;;;;;;;2.27;1.80;;;17.80;98.00;;;;;;5094744;28;20545;-69
2021/07/24 02:10:49;;;;;;;1.63;1.60;;;17.70;98.00;;;;;;5094317;28;20451;-71
2021/07/24 02:13:18;;;;;;;3.10;2.00;;;17.70;98.00;;;;;;5094460;28;20452;-69
2021/07/24 02:15:45;;;;;;;2.40;1.53;;;17.70;98.00;;;;;;5094196;28;20531;-71
2021/07/24 02:18:15;;;;;;;2.70;1.43;;;17.70;98.00;;;;;;5094427;28;20917;-70
2021/07/24 02:20:45;;;;;;;2.47;1.80;;;17.70;98.00;;;;;;5094172;28;20517;-70
2021/07/24 02:23:12;;;;;;;2.00;1.83;;;17.70;98.00;;;;;;5094253;28;20452;-70
2021/07/24 02:25:39;;;;;;;2.50;1.50;;;17.60;98.00;;;;;;5094034;28;20829;-70
2021/07/24 02:28:08;;;;;;;3.07;2.17;;;17.50;98.00;;;;;;5094009;28;20517;-70
2021/07/24 02:30:35;;;;;;;2.50;1.60;;;17.40;98.00;;;;;;5094077;28;20456;-70
2021/07/24 02:33:02;;;;;;;2.33;1.77;;;17.40;98.00;;;;;;5093871;28;20520;-69
2021/07/24 02:35:29;;;;;;;1.60;1.50;;;17.40;98.00;;;;;;5093832;28;20452;-69
2021/07/24 02:37:56;;;;;;;10.83;2.47;;;17.40;98.00;;;;;;5094039;28;20460;-70
2021/07/24 02:40:24;;;;;;;1.80;1.47;;;17.40;98.00;;;;;;5093833;28;20582;-68
2021/07/24 02:42:51;;;;;;;1.90;1.83;;;17.60;98.00;;;;;;5093933;28;20601;-69
2021/07/24 02:45:21;;;;;;;2.87;1.80;;;17.70;98.00;;;;;;5093758;28;20484;-69
2021/07/24 02:47:48;;;;;;;1.77;1.67;;;17.70;98.00;;;;;;5093891;28;20484;-69
2021/07/24 02:50:15;;;;;;;2.20;1.97;;;17.50;98.00;;;;;;5092424;28;20509;-70
2021/07/24 02:52:42;;;;;;;2.60;1.87;;;17.50;98.00;;;;;;5093283;28;20521;-69
2021/07/24 02:55:10;;;;;;;1.57;1.30;;;17.60;98.00;;;;;;5094002;28;21020;-68
2021/07/24 02:57:37;;;;;;;2.90;2.30;;;17.70;98.00;;;;;;5093724;28;20984;-70
2021/07/24 03:00:06;;;;;;;2.50;2.07;;;17.80;98.00;;;;;;5093901;28;21064;-68
2021/07/24 03:02:37;;;;;;;4.93;1.50;;;17.80;98.00;;;;;;5093543;28;20480;-70
2021/07/24 03:05:05;;;;;;;1.73;1.60;;;17.80;98.00;;;;;;5093769;28;20587;-69
2021/07/24 03:07:32;;;;;;;2.50;1.70;;;17.80;98.00;;;;;;5093695;28;20495;-69
2021/07/24 03:09:59;;;;;;;1.97;1.77;;;17.80;98.00;;;;;;5093556;28;20498;-71
2021/07/24 03:12:26;;;;;;;1.80;1.63;;;17.70;98.00;;;;;;5093094;28;20463;-70
2021/07/24 03:14:54;;;;;;;2.43;1.80;;;17.70;98.00;;;;;;5093377;28;20460;-71
2021/07/24 03:17:21;;;;;;;1.60;1.57;;;17.70;98.00;;;;;;5093202;28;20495;-70
2021/07/24 03:19:50;;;;;;;3.00;1.60;;;17.80;98.00;;;;;;5092913;28;20543;-69
2021/07/24 03:22:17;;;;;;;1.77;1.70;;;18.00;98.00;;;;;;5093304;28;20503;-70
2021/07/24 03:24:44;;;;;;;2.37;2.20;;;17.90;98.00;;;;;;5092865;28;20487;-70
2021/07/24 03:27:12;;;;;;;1.97;1.90;;;17.70;98.00;;;;;;5091327;28;20966;-70
2021/07/24 03:29:43;;;;;;;2.33;1.63;;;17.60;98.00;;;;;;5092761;28;20459;-69
2021/07/24 03:32:10;;;;;;;2.33;1.70;;;17.60;98.00;;;;;;5092992;28;20458;-70
2021/07/24 03:34:37;;;;;;;1.47;1.43;;;17.60;98.00;;;;;;5092782;28;21031;-70
2021/07/24 03:37:06;;;;;;;1.73;1.50;;;17.60;98.00;;;;;;5091224;28;20460;-70
2021/07/24 03:39:33;;;;;;;2.73;2.43;;;17.70;98.00;;;;;;5091455;28;20963;-69
2021/07/24 03:42:02;;;;;;;1.93;1.70;;;17.60;98.00;;;;;;5092912;28;20460;-70
2021/07/24 03:44:29;;;;;;;2.13;1.97;;;17.60;98.00;;;;;;5092334;28;20569;-69
2021/07/24 03:46:58;;;;;;;2.60;1.70;;;17.50;98.00;;;;;;5092573;28;20476;-70
2021/07/24 03:49:25;;;;;;;3.40;1.73;;;17.50;98.00;;;;;;5092354;28;20517;-71
2021/07/24 03:51:52;;;;;;;2.27;2.00;;;17.50;98.00;;;;;;5092416;28;20456;-69
2021/07/24 03:54:20;;;;;;;3.90;2.17;;;17.50;98.00;;;;;;5092561;28;20503;-70
2021/07/24 03:56:49;;;;;;;2.80;1.50;;;17.60;98.00;;;;;;5092314;28;20486;-69
2021/07/24 03:59:17;;;;;;;1.70;1.40;;;17.80;98.00;;;;;;5091320;28;20459;-69
2021/07/24 04:01:45;;;;;;;2.33;1.70;;;17.90;98.00;;;;;;5092352;28;20874;-69
2021/07/24 04:04:13;;;;;;;2.20;1.70;;;18.00;98.00;;;;;;5091577;28;20456;-69
2021/07/24 04:06:41;;;;;;;3.10;1.83;;;18.00;98.00;;;;;;5092353;28;20976;-69
2021/07/24 04:09:08;;;;;;;1.70;1.63;;;18.00;98.00;;;;;;5092364;28;20447;-69
2021/07/24 04:11:37;;;;;;;2.13;1.80;;;18.00;98.00;;;;;;5057723;28;20555;-70
2021/07/24 04:14:04;;;;;;;3.10;2.20;;;18.00;98.00;;;;;;5092352;28;20496;-70
2021/07/24 04:16:33;;;;;;;3.80;2.00;;;18.10;98.00;;;;;;5092216;28;20448;-71
2021/07/24 04:19:02;;;;;;;3.87;2.53;;;18.10;98.00;;;;;;5092420;28;20467;-70
2021/07/24 04:21:29;;;;;;;2.43;1.70;;;18.00;98.00;;;;;;5092557;28;20486;-70
2021/07/24 04:23:56;;;;;;;3.47;1.93;;;17.90;98.00;;;;;;5091656;28;20448;-71
2021/07/24 04:26:24;;;;;;;3.20;2.20;;;17.90;98.00;;;;;;5090707;28;20553;-70
2021/07/24 04:28:53;;;;;;;4.07;2.20;;;18.00;98.00;;;;;;5092079;28;20483;-70
2021/07/24 04:31:20;;;;;;;2.50;1.83;;;18.10;98.00;;;;;;5091903;28;20513;-70
2021/07/24 04:33:47;;;;;;;4.60;3.40;;;18.20;98.00;;;;;;5090420;28;20521;-69
2021/07/24 04:36:14;;;;;;;2.00;1.70;;;18.20;98.00;;;;;;5092220;28;20946;-69
2021/07/24 04:38:41;;;;;;;1.93;1.47;;;18.20;98.00;;;;;;5091839;28;20464;-70
2021/07/24 04:41:08;;;;;;;1.80;1.80;;;18.30;98.00;;;;;;5091885;28;20484;-70
2021/07/24 04:43:35;;;;;;;1.83;1.83;;;18.40;98.00;;;;;;5090618;28;20953;-69
2021/07/24 04:46:07;;;;;;;2.40;1.60;;;18.50;98.00;;;;;;5091750;28;21066;-69
2021/07/24 04:48:34;;;;;;;2.43;2.07;;;18.50;98.00;;;;;;5091381;28;20950;-70
2021/07/24 04:51:02;;;;;;;1.80;1.57;;;18.60;98.00;;;;;;5091731;28;20912;-69
2021/07/24 04:53:29;;;;;;;3.30;2.00;;;18.60;98.00;;;;;;5091647;28;20455;-70
2021/07/24 04:55:56;;;;;;;2.60;1.50;;;18.40;98.00;;;;;;5091649;28;20460;-70
2021/07/24 04:58:23;;;;;;;2.43;2.03;;;18.30;98.00;;;;;;5091893;28;20452;-70
2021/07/24 05:00:50;;;;;;;1.73;1.57;;;18.40;98.00;;;;;;5091762;28;20456;-69
2021/07/24 05:03:20;;;;;;;3.73;2.17;;;18.50;98.00;;;;;;5091474;28;20488;-69
2021/07/24 05:05:49;;;;;;;2.27;1.87;;;18.50;98.00;;;;;;5091374;28;20519;-70
2021/07/24 05:08:18;;;;;;;2.17;1.70;;;18.40;98.00;;;;;;5091211;28;20464;-71
2021/07/24 05:10:45;;;;;;;2.27;1.83;;;18.50;98.00;;;;;;5091369;28;20452;-70
2021/07/24 05:13:14;;;;;;;2.53;2.10;;;18.50;98.00;;;;;;5091501;28;20863;-71
2021/07/24 05:15:41;;;;;;;3.77;1.90;;;18.50;98.00;;;;;;5094905;28;20448;-69
2021/07/24 05:18:09;;;;;;;2.47;1.97;;;18.40;98.00;;;;;;5095590;28;20514;-69
2021/07/24 05:20:37;;;;;;;2.00;1.57;;;18.40;98.00;;;;;;5095337;28;20580;-70
2021/07/24 05:23:04;;;;;;;2.50;2.07;;;18.40;98.00;;;;;;5095576;28;20516;-69
2021/07/24 05:25:31;;;;;;;2.33;1.70;;;18.40;98.00;;;;;;5095480;28;20541;-71
2021/07/24 05:27:59;;;;;;;2.17;1.40;;;18.50;98.00;;;;;;5095234;28;20472;-71
2021/07/24 05:30:26;;;;;;;1.80;1.67;;;18.50;98.00;;;;;;5095805;28;20866;-71
2021/07/24 05:32:53;;;;;;;2.20;2.00;;;18.50;98.00;;;;;;5095340;28;20475;-70
2021/07/24 05:35:21;;;;;;;5.20;2.70;;;18.60;98.00;;;;;;5094216;28;20455;-71
2021/07/24 05:37:49;;;;;;;1.70;1.63;;;18.70;98.00;;;;;;5095207;28;20528;-69
2021/07/24 05:40:16;;;;;;;1.93;1.50;;;19.00;98.00;;;;;;5095494;28;20455;-69
2021/07/24 05:42:44;;;;;;;2.57;1.90;;;19.20;98.00;;;;;;5094747;28;20516;-71
2021/07/24 05:45:11;;;;;;;6.13;2.87;;;19.10;98.00;;;;;;5095190;28;20921;-70
2021/07/24 05:47:39;;;;;;;2.40;2.20;;;19.30;98.00;;;;;;5094937;28;20467;-69
2021/07/24 05:50:07;;;;;;;2.87;1.90;;;19.50;98.00;;;;;;5094893;28;21026;-70
2021/07/24 05:52:34;;;;;;;2.60;2.20;;;19.70;98.00;;;;;;5093355;28;20456;-70
2021/07/24 05:55:02;;;;;;;2.10;1.70;;;19.60;98.00;;;;;;5094828;28;20494;-69
2021/07/24 05:57:29;;;;;;;1.80;1.70;;;19.50;98.00;;;;;;5093645;28;20451;-71
2021/07/24 05:59:57;;;;;;;2.20;2.00;;;19.40;98.00;;;;;;5094290;28;20555;-70
2021/07/24 06:02:24;;;;;;;2.80;2.20;;;19.40;98.00;;;;;;5094777;28;20458;-70
2021/07/24 06:04:52;;;;;;;2.47;1.87;;;19.60;98.00;;;;;;5094658;28;20535;-70
2021/07/24 06:07:19;;;;;;;2.40;2.07;;;19.60;98.00;;;;;;5093279;28;20467;-69
2021/07/24 06:09:46;;;;;;;1.80;1.57;;;19.60;98.00;;;;;;5094534;28;20498;-70
2021/07/24 06:12:15;;;;;;;6.03;2.00;;;19.60;98.00;;;;;;5094723;28;20552;-71
2021/07/24 06:14:42;;;;;;;2.00;1.73;;;19.80;98.00;;;;;;5094199;28;20523;-71
2021/07/24 06:17:09;;;;;;;2.13;1.80;;;20.10;98.00;;;;;;5094340;28;20452;-70
2021/07/24 06:19:36;;;;;;;2.20;2.00;;;20.10;98.00;;;;;;5093824;28;20448;-69
2021/07/24 06:22:04;;;;;;;7.00;2.70;;;20.20;98.00;;;;;;5094064;28;21087;-69
2021/07/24 06:24:31;;;;;;;4.40;2.70;;;20.40;98.00;;;;;;5094639;28;20513;-69
2021/07/24 06:26:59;;;;;;;1.57;1.57;;;20.40;98.00;;;;;;5091849;28;20523;-69
2021/07/24 06:29:34;;;;;;;2.70;1.93;;;20.40;98.00;;;;;;5092948;28;20875;-70
2021/07/24 06:32:05;;;;;;;2.30;2.10;;;20.50;98.00;;;;;;5092953;28;20463;-70
2021/07/24 06:34:33;;;;;;;2.17;2.07;;;20.50;98.00;;;;;;5091298;28;20766;-69
2021/07/24 06:37:00;;;;;;;2.63;2.43;;;20.50;98.00;;;;;;5092897;28;20988;-69
2021/07/24 06:39:27;;;;;;;2.50;2.23;;;20.40;98.00;;;;;;5094285;28;20467;-69
2021/07/24 06:41:55;;;;;;;2.40;2.20;;;20.50;98.00;;;;;;5093858;28;20462;-69
2021/07/24 06:44:21;;;;;;;2.33;1.83;;;20.70;98.00;;;;;;5094000;28;20488;-69
2021/07/24 06:46:51;;;;;;;2.70;2.00;;;20.80;98.00;;;;;;5093847;28;20914;-70
2021/07/24 06:49:19;;;;;;;2.03;1.63;;;20.70;98.00;;;;;;5094061;28;20452;-70
2021/07/24 06:51:46;;;;;;;3.13;2.40;;;20.70;98.00;;;;;;5092956;28;20535;-70
2021/07/24 06:54:14;;;;;;;3.30;2.40;;;20.70;98.00;;;;;;5093836;28;20483;-71
2021/07/24 06:56:41;;;;;;;2.30;2.00;;;20.70;98.00;;;;;;5093749;28;20452;-69
2021/07/24 06:59:08;;;;;;;2.43;2.03;;;20.70;98.00;;;;;;5093607;28;20813;-69
2021/07/24 07:01:35;;;;;;;3.50;2.57;;;20.70;98.00;;;;;;5093953;28;20490;-70
2021/07/24 07:04:06;;;;;;;4.80;3.00;;;20.90;98.00;;;;;;5093632;28;20456;-69
2021/07/24 07:06:33;;;;;;;1.80;1.80;;;20.80;98.00;;;;;;5092334;28;20519;-70
2021/07/24 07:09:02;;;;;;;2.97;1.73;;;20.90;98.00;;;;;;5091814;28;20452;-69
2021/07/24 07:11:28;;;;;;;2.33;1.90;;;21.10;98.00;;;;;;5092824;28;20452;-69
2021/07/24 07:14:07;;;;;;;2.80;2.17;;;21.30;98.00;;;;;;5093426;28;20970;-70
2021/07/24 07:16:34;;;;;;;3.33;2.63;;;21.50;98.00;;;;;;5092983;28;20460;-69
2021/07/24 07:19:01;;;;;;;2.80;2.17;;;21.60;98.00;;;;;;5093443;28;20487;-67
2021/07/24 07:21:30;;;;;;;2.40;2.13;;;21.80;98.00;;;;;;5093239;28;20467;-68
2021/07/24 07:23:57;;;;;;;2.63;2.27;;;22.00;98.00;;;;;;5092741;28;20541;-67
2021/07/24 07:26:25;;;;;;;1.77;1.63;;;22.30;98.00;;;;;;5092735;28;20519;-71
2021/07/24 07:28:53;;;;;;;2.27;2.07;;;22.40;98.00;;;;;;5092659;28;20511;-69
2021/07/24 07:31:20;;;;;;;2.63;1.73;;;22.50;98.00;;;;;;5092719;28;20596;-69
2021/07/24 07:33:49;;;;;;;2.53;2.13;;;22.50;98.00;;;;;;5092778;28;20480;-69
2021/07/24 07:36:16;;;;;;;1.97;1.83;;;22.40;98.00;;;;;;5092663;28;20452;-71
2021/07/24 07:38:44;;;;;;;4.83;2.07;;;22.40;98.00;;;;;;5092524;28;20505;-69
2021/07/24 07:41:12;;;;;;;2.17;1.80;;;22.20;98.00;;;;;;5092767;28;20456;-70
2021/07/24 07:43:39;;;;;;;2.10;1.90;;;22.10;98.00;;;;;;5092287;28;20456;-69
2021/07/24 07:46:07;;;;;;;2.20;1.93;;;22.00;98.00;;;;;;5092751;28;20537;-71
2021/07/24 07:48:35;;;;;;;2.40;2.00;;;22.00;98.00;;;;;;5092244;28;20498;-69
2021/07/24 07:51:03;;;;;;;2.33;2.10;;;22.00;98.00;;;;;;5092711;28;20855;-71
2021/07/24 07:53:32;;;;;;;1.80;1.70;;;22.00;98.00;;;;;;5092346;28;20517;-69
2021/07/24 07:56:01;;;;;;;2.00;1.90;;;22.00;98.00;;;;;;5092660;28;20991;-70
2021/07/24 07:58:28;;;;;;;2.77;2.20;;;22.10;98.00;;;;;;5092259;28;20509;-67
2021/07/24 08:00:56;;;;;;;2.07;1.77;;;22.20;98.00;;;;;;5089073;28;20460;-70
2021/07/24 08:03:25;;;;;;;5.33;2.67;;;22.30;98.00;;;;;;5090049;28;20476;-70
2021/07/24 08:05:52;;;;;;;3.70;2.50;;;22.40;98.00;;;;;;5103185;28;20489;-70
2021/07/24 08:08:19;;;;;;;2.07;1.90;;;22.30;98.00;;;;;;5101751;28;20509;-69
2021/07/24 08:10:46;;;;;;;2.00;1.90;;;22.50;98.00;;;;;;5101572;28;20486;-68
2021/07/24 08:13:18;;;;;;;2.23;1.83;;;22.50;98.00;;;;;;5100580;28;20992;-68
2021/07/24 08:15:47;;;;;;;4.77;2.13;;;22.50;98.00;;;;;;5112381;28;20489;-70
2021/07/24 08:18:14;;;;;;;2.33;2.07;;;22.50;98.00;;;;;;5112647;28;20477;-69
2021/07/24 08:20:44;;;;;;;5.23;2.20;;;22.50;98.00;;;;;;5112563;28;20455;-69
2021/07/24 08:23:13;;;;;;;3.93;2.17;;;22.50;98.00;;;;;;5111160;28;20451;-69
2021/07/24 08:25:41;;;;;;;3.40;2.13;;;22.50;98.00;;;;;;5112339;28;20470;-69
2021/07/24 08:28:09;;;;;;;2.20;1.70;;;22.50;98.00;;;;;;5111915;28;20496;-70
2021/07/24 08:30:39;;;;;;;1.83;1.70;;;22.50;98.00;;;;;;5112374;28;20524;-69
2021/07/24 08:33:06;;;;;;;2.03;1.73;;;22.50;98.00;;;;;;5112278;28;20512;-70
2021/07/24 08:35:34;;;;;;;2.30;1.67;;;22.50;98.00;;;;;;5111151;28;20451;-70
2021/07/24 08:38:01;;;;;;;2.07;1.80;;;22.50;98.00;;;;;;5112355;28;21021;-68
2021/07/24 08:40:28;;;;;;;2.87;2.20;;;22.40;98.00;;;;;;5112033;28;20455;-71
2021/07/24 08:42:55;;;;;;;6.30;2.73;;;22.30;98.00;;;;;;5112070;28;20459;-70
2021/07/24 08:45:22;;;;;;;22.63;2.10;;;22.30;98.00;;;;;;5112205;28;20455;-70
2021/07/24 08:47:51;;;;;;;2.17;2.00;;;22.30;98.00;;;;;;5112076;28;20483;-70
2021/07/24 08:50:18;;;;;;;2.20;1.83;;;22.30;98.00;;;;;;5117460;28;20455;-70
2021/07/24 08:52:51;;;;;;;1.90;1.63;;;22.30;98.00;;;;;;5118887;28;21164;-70
2021/07/24 08:55:22;;;;;;;2.60;2.20;;;22.30;98.00;;;;;;5119048;28;20482;-70
2021/07/24 08:57:52;;;;;;;2.30;1.97;;;22.40;98.00;;;;;;5119727;28;20472;-71
2021/07/24 09:00:21;;;;;;;2.13;1.80;;;22.60;98.00;;;;;;5118854;28;20828;-70
2021/07/24 09:02:52;;;;;;;1.87;1.47;;;22.80;98.00;;;;;;5118845;27;20454;-70
2021/07/24 09:05:20;;;;;;;2.20;2.00;;;22.90;98.00;;;;;;5101209;28;20799;-71
2021/07/24 09:07:49;;;;;;;2.23;2.10;;;23.10;98.00;;;;;;5118751;28;21051;-70
2021/07/24 09:10:18;;;;;;;2.33;2.00;;;23.30;98.00;;;;;;5118751;28;20478;-70
2021/07/24 09:12:47;;;;;;;3.17;1.97;;;23.60;98.00;;;;;;5119153;27;20462;-70
2021/07/24 09:15:16;;;;;;;3.00;2.27;;;23.80;98.00;;;;;;5118509;27;20462;-70
2021/07/24 09:17:43;;;;;;;2.27;2.03;;;24.00;98.00;;;;;;5119023;28;20451;-71
2021/07/24 09:20:12;;;;;;;1.80;1.60;;;24.10;98.00;;;;;;5118988;28;20875;-69
2021/07/24 09:22:40;;;;;;;2.43;2.00;;;24.20;98.00;;;;;;5117520;28;20472;-71
2021/07/24 09:25:11;;;;;;;2.53;2.00;;;24.30;98.00;;;;;;5118637;28;20451;-70
2021/07/24 09:27:39;;;;;;;3.33;1.90;;;24.30;98.00;;;;;;5118652;28;20493;-72
2021/07/24 09:30:08;;;;;;;2.90;2.43;;;24.30;98.00;;;;;;5117656;28;20455;-71
2021/07/24 09:32:35;;;;;;;1.70;1.60;;;24.30;98.00;;;;;;5118669;28;20953;-70
2021/07/24 09:35:02;;;;;;;3.50;2.23;;;24.40;98.00;;;;;;5118570;28;20546;-70
2021/07/24 09:37:31;;;;;;;2.10;1.73;;;24.60;98.00;;;;;;5118771;28;20454;-72
2021/07/24 09:40:19;;;;;;;1.70;1.40;;;24.90;98.00;;;;;;5118507;28;20511;-71
2021/07/24 09:42:46;;;;;;;4.40;2.23;;;25.10;98.00;;;;;;5118603;28;20454;-71
2021/07/24 09:45:13;;;;;;;1.93;1.87;;;25.20;98.00;;;;;;5118821;28;20463;-71
2021/07/24 09:47:40;;;;;;;2.70;2.10;;;25.30;98.00;;;;;;5118370;27;21077;-70
2021/07/24 09:50:12;;;;;;;2.47;1.70;;;25.30;98.00;;;;;;5118603;28;20516;-72
2021/07/24 09:52:52;;;;;;;3.73;1.97;;;25.30;98.00;;;;;;5118257;28;20555;-72
2021/07/24 09:55:23;;;;;;;1.90;1.70;;;25.30;98.00;;;;;;5118327;28;20482;-71
2021/07/24 09:57:52;;;;;;;3.93;2.20;;;25.40;98.00;;;;;;5100392;28;20439;-71
2021/07/24 10:00:27;;;;;;;2.37;2.10;;;25.60;98.00;;;;;;5116007;28;20446;-71
2021/07/24 10:03:03;;;;;;;2.27;2.07;;;25.80;97.90;;;;;;5114972;28;20807;-70
2021/07/24 10:05:36;;;;;;;2.20;1.90;;;25.80;97.20;;;;;;5113623;28;20450;-71
2021/07/24 10:08:10;;;;;;;4.27;2.80;;;26.00;97.30;;;;;;5115040;28;20575;-72
2021/07/24 10:10:39;;;;;;;2.77;2.13;;;26.20;98.00;;;;;;5114702;28;20458;-71
2021/07/24 10:13:09;;;;;;;4.93;2.20;;;26.30;96.50;;;;;;5113967;28;20484;-71
2021/07/24 10:15:40;;;;;;;2.93;2.03;;;26.30;94.60;;;;;;5114909;28;20477;-71
2021/07/24 10:18:08;;;;;;;3.67;2.37;;;26.30;95.50;;;;;;5114772;27;20457;-69
2021/07/24 10:20:37;;;;;;;2.67;2.17;;;26.40;96.40;;;;;;5114841;28;20462;-70
2021/07/24 10:23:06;;;;;;;2.67;2.10;;;26.50;96.40;;;;;;5114679;28;21275;-71
2021/07/24 10:25:43;;;;;;;4.30;2.50;;;26.60;97.30;;;;;;5114428;28;20451;-70
2021/07/24 10:28:13;;;;;;;2.50;2.00;;;26.80;94.30;;;;;;5114409;28;20510;-70
2021/07/24 10:30:41;;;;;;;3.40;2.30;;;26.90;95.20;;;;;;5114416;28;20470;-70
2021/07/24 10:33:10;;;;;;;3.50;2.10;;;27.10;93.80;;;;;;5114973;28;20458;-70
2021/07/24 10:35:42;;;;;;;2.83;2.10;;;27.30;93.50;;;;;;5114468;28;20508;-70
2021/07/24 10:38:30;;;;;;;2.80;2.17;;;27.40;93.10;;;;;;5114467;28;20524;-71
2021/07/24 10:41:48;;;;;;;3.60;2.33;;;27.40;92.10;;;;;;5114551;28;20493;-70
2021/07/24 10:44:39;;;;;;;2.50;1.77;;;27.40;93.80;;;;;;5114190;28;20451;-70
2021/07/24 10:47:18;;;;;;;4.10;2.70;;;27.60;92.10;;;;;;5109681;28;20507;-70
2021/07/24 10:50:04;;;;;;;3.37;2.13;;;27.70;92.00;;;;;;5114299;28;20512;-70
2021/07/24 10:53:05;;;;;;;3.90;2.40;;;28.10;92.70;;;;;;5114157;28;20504;-70
2021/07/24 10:55:42;;;;;;;3.00;2.10;;;28.40;89.90;;;;;;5114248;28;20451;-70
2021/07/24 10:58:13;;;;;;;3.60;2.87;;;28.40;89.10;;;;;;5114243;28;20523;-71
2021/07/24 11:00:52;;;;;;;4.87;2.60;;;28.30;87.70;;;;;;5114270;28;20491;-70
2021/07/24 11:03:40;;;;;;;5.77;3.00;;;28.30;88.70;;;;;;5114059;28;20551;-70
2021/07/24 11:06:30;;;;;;;2.90;2.17;;;28.40;90.90;;;;;;5114334;28;20450;-70
2021/07/24 11:09:29;;;;;;;4.80;2.87;;;28.40;88.30;;;;;;5113461;28;20466;-70
2021/07/24 11:12:07;;;;;;;3.10;2.27;;;28.30;87.40;;;;;;5113219;28;20463;-71
2021/07/24 11:15:00;;;;;;;3.80;2.40;;;28.50;89.80;;;;;;5113697;28;20496;-70
2021/07/24 11:17:30;;;;;;;4.60;2.87;;;28.90;87.90;;;;;;5113670;28;20534;-70
2021/07/24 11:20:29;;;;;;;4.10;2.77;;;29.20;88.00;;;;;;5113328;28;20512;-71
2021/07/24 11:23:08;;;;;;;3.13;2.30;;;29.30;86.80;;;;;;5113577;28;20443;-71
2021/07/24 11:25:40;;;;;;;7.83;2.80;;;29.60;88.20;;;;;;5113253;28;20937;-71
2021/07/24 11:28:08;;;;;;;5.10;2.30;;;29.90;86.20;;;;;;5113173;28;20594;-70
2021/07/24 11:30:37;;;;;;;5.47;2.90;;;30.00;85.20;;;;;;5113269;28;20559;-70
2021/07/24 11:33:05;;;;;;;3.50;2.83;;;30.10;85.20;;;;;;5113311;28;20534;-71
2021/07/24 11:35:37;;;;;;;3.53;2.50;;;30.10;86.90;;;;;;5112090;28;20467;-70
2021/07/24 11:38:22;;;;;;;3.97;2.80;;;30.40;86.40;;;;;;5113340;28;20467;-71
2021/07/24 11:41:06;;;;;;;4.10;2.70;;;30.60;85.40;;;;;;5113191;28;20504;-70
2021/07/24 11:43:33;;;;;;;3.40;2.40;;;30.60;84.60;;;;;;5113211;28;20454;-71
2021/07/24 11:46:03;;;;;;;3.30;2.37;;;30.40;85.20;;;;;;5113122;28;20863;-70
2021/07/24 11:48:31;;;;;;;4.00;2.50;;;30.00;83.30;;;;;;5113042;28;20877;-71
2021/07/24 11:51:02;;;;;;;4.40;2.10;;;29.40;81.80;;;;;;5113311;28;20482;-71
2021/07/24 11:53:30;;;;;;;1.80;1.70;;;28.90;82.60;;;;;;5112875;28;20775;-70
2021/07/24 11:55:57;;;;;;;2.50;1.80;;;28.30;84.70;;;;;;5111637;28;20540;-70
2021/07/24 11:58:24;;;;;;;2.93;2.10;;;28.00;86.00;;;;;;5113007;28;20451;-70
2021/07/24 12:00:53;;;;;;;4.03;2.17;;;27.90;87.50;;;;;;5112747;28;20525;-70
2021/07/24 12:03:23;;;;;;;2.80;2.10;;;27.70;88.60;;;;;;5111629;28;20454;-71
2021/07/24 12:05:51;;;;;;;4.00;2.53;;;27.60;89.80;;;;;;5112598;28;20543;-70
2021/07/24 12:08:20;;;;;;;4.50;2.40;;;27.50;91.40;;;;;;5112853;28;20563;-70
2021/07/24 12:10:50;;;;;;;2.70;2.23;;;27.50;89.90;;;;;;5112569;28;20455;-70
2021/07/24 12:13:22;;;;;;;2.60;1.90;;;27.50;92.20;;;;;;5112777;28;20494;-70
2021/07/24 12:16:09;;;;;;;3.97;2.50;;;27.50;91.70;;;;;;5112829;28;20508;-70
2021/07/24 12:18:40;;;;;;;4.53;3.00;;;27.60;93.90;;;;;;5112567;28;20459;-71
2021/07/24 12:21:13;;;;;;;3.60;2.53;;;27.90;95.00;;;;;;5112920;28;21078;-70
2021/07/24 12:23:44;;;;;;;3.30;2.30;;;28.00;94.50;;;;;;5110614;28;20459;-70
2021/07/24 12:26:16;;;;;;;4.47;2.90;;;28.20;94.00;;;;;;5112555;28;20467;-71
2021/07/24 12:28:44;;;;;;;4.63;2.50;;;28.40;90.20;;;;;;5112418;28;20483;-70
2021/07/24 12:31:30;;;;;;;3.03;2.80;;;28.60;90.80;;;;;;5112281;28;20500;-71
2021/07/24 12:34:00;;;;;;;6.73;3.50;;;28.70;88.10;;;;;;5112407;28;20463;-71
2021/07/24 12:36:30;;;;;;;3.90;2.80;;;28.70;87.70;;;;;;5112440;28;20822;-70
2021/07/24 12:38:59;;;;;;;3.30;1.90;;;28.70;89.00;;;;;;5112067;28;20447;-70
2021/07/24 12:41:32;;;;;;;3.13;2.20;;;29.20;86.90;;;;;;5110605;28;20447;-69
2021/07/24 12:44:09;;;;;;;4.83;2.50;;;29.30;89.80;;;;;;5112192;28;20960;-70
2021/07/24 12:46:38;;;;;;;3.47;2.33;;;29.70;88.80;;;;;;5111900;28;21018;-71
2021/07/24 12:49:11;;;;;;;3.60;2.43;;;30.10;87.60;;;;;;5111983;28;20532;-70
2021/07/24 12:51:40;;;;;;;3.23;2.30;;;30.50;85.30;;;;;;5112068;28;20536;-69
2021/07/24 12:54:12;;;;;;;2.60;1.90;;;30.90;84.80;;;;;;5111981;28;20784;-70
2021/07/24 12:56:42;;;;;;;3.23;2.40;;;31.30;81.90;;;;;;5110828;28;20450;-71
2021/07/24 12:59:09;;;;;;;3.53;2.47;;;31.40;82.20;;;;;;5112002;28;20447;-70
2021/07/24 13:01:43;;;;;;;3.60;2.60;;;31.50;80.40;;;;;;5110754;28;20964;-70
2021/07/24 13:04:15;;;;;;;3.40;2.30;;;31.60;80.00;;;;;;5111899;28;20512;-71